Chunchula, Alabama
Current Conditions -  °F | °C
As of 6:56 PM on Monday 26 Jan 2015 (Local Time) from KMOB Reporting Station
Clear Clear  
Wind Chill: 43°   Ceiling: Unl
Heat Index: 46°   Visibility: 10mi
Dew Point: 31°   Wind: 6mph
Humidity: 56%   Direction: 230°SW
Pressure: 30.07"   Gusts: NA
Location:  30.92°N, 88.2°W
Report Text: KMOB 270056Z 23005KT 10SM CLR 08/M01 A3007 RMK AO2 SLP180 T00781006
Loading
Personal Weather Stations






























Interactive Weather Map New forecast layout! Learn more

10-Day Weather Forecast

Advertisements
Track Severe Weather on mobile